createdAt,value
2023-04-17T00:01:40.601Z,69.94
2023-04-17T00:04:13.606Z,70.19
2023-04-17T00:06:43.394Z,71.04
2023-04-17T00:09:11.821Z,71.21
2023-04-17T00:11:39.407Z,71.13
2023-04-17T00:14:06.644Z,71.02
2023-04-17T00:16:33.646Z,71.07
2023-04-17T00:19:00.537Z,70.39
2023-04-17T00:21:29.834Z,70.23
2023-04-17T00:23:56.930Z,70.24
2023-04-17T00:26:24.389Z,70.16
2023-04-17T00:28:51.819Z,70.61
2023-04-17T00:31:18.998Z,70.35
2023-04-17T00:33:46.327Z,70.24
2023-04-17T00:36:13.909Z,70.61
2023-04-17T00:38:41.020Z,70.66
2023-04-17T00:41:07.839Z,70.54
2023-04-17T00:43:34.704Z,70.89
2023-04-17T00:46:02.344Z,70.92
2023-04-17T00:48:29.302Z,71.19
2023-04-17T00:50:56.525Z,71.32
2023-04-17T00:53:23.461Z,71.14
2023-04-17T00:55:52.097Z,71.78
2023-04-17T00:58:19.271Z,71.85
2023-04-17T01:00:46.171Z,72.14
2023-04-17T01:03:13.260Z,71.34
2023-04-17T01:05:41.278Z,71.03
2023-04-17T01:08:08.080Z,70.92
2023-04-17T01:10:34.890Z,71.00
2023-04-17T01:13:06.865Z,71.53
2023-04-17T01:15:35.697Z,71.26
2023-04-17T01:18:03.064Z,71.23
2023-04-17T01:20:31.052Z,71.60
2023-04-17T01:22:58.732Z,71.95
2023-04-17T01:25:29.065Z,72.24
2023-04-17T01:27:56.832Z,72.55
2023-04-17T01:30:23.750Z,72.51
2023-04-17T01:32:50.864Z,72.53
2023-04-17T01:35:17.726Z,72.11
2023-04-17T01:37:44.580Z,72.99
2023-04-17T01:40:11.976Z,73.34
2023-04-17T01:42:38.918Z,73.53
2023-04-17T01:45:06.737Z,73.01
2023-04-17T01:47:33.540Z,72.88
2023-04-17T01:50:00.813Z,73.29
2023-04-17T01:52:27.595Z,73.25
2023-04-17T01:54:54.458Z,73.38
2023-04-17T01:57:21.321Z,73.38
2023-04-17T01:59:48.159Z,73.17
2023-04-17T02:02:15.143Z,73.69
2023-04-17T02:04:42.272Z,73.69
2023-04-17T02:07:09.237Z,73.26
2023-04-17T02:09:36.177Z,72.89
2023-04-17T02:12:03.300Z,72.59
2023-04-17T02:14:31.230Z,72.30
2023-04-17T02:16:58.214Z,72.55
2023-04-17T02:19:25.138Z,72.93
2023-04-17T02:21:52.062Z,73.00
2023-04-17T02:24:18.882Z,72.73
2023-04-17T02:26:46.233Z,73.14
2023-04-17T02:29:13.134Z,72.59
2023-04-17T02:31:43.935Z,72.62
2023-04-17T02:34:10.904Z,72.46
2023-04-17T02:36:37.748Z,72.87
2023-04-17T02:39:05.403Z,72.92
2023-04-17T02:41:32.333Z,72.85
2023-04-17T02:44:01.834Z,73.13
2023-04-17T02:46:28.800Z,73.67
2023-04-17T02:48:55.697Z,73.38
2023-04-17T02:51:22.539Z,73.51
2023-04-17T02:53:49.341Z,73.45
2023-04-17T02:56:16.197Z,73.38
2023-04-17T02:58:44.931Z,73.31
2023-04-17T03:01:12.211Z,73.45
2023-04-17T03:03:42.048Z,73.45
2023-04-17T03:06:09.952Z,73.06
2023-04-17T03:08:38.339Z,73.27
2023-04-17T03:11:06.281Z,73.27
2023-04-17T03:13:36.572Z,73.34
2023-04-17T03:16:04.810Z,73.29
2023-04-17T03:18:32.160Z,73.55
2023-04-17T03:20:59.142Z,73.68
2023-04-17T03:23:25.983Z,73.53
2023-04-17T03:25:53.282Z,74.04
2023-04-17T03:28:21.823Z,74.05
2023-04-17T03:30:49.387Z,73.98
2023-04-17T03:33:16.508Z,73.95
2023-04-17T03:35:44.600Z,73.31
2023-04-17T03:38:11.471Z,73.75
2023-04-17T03:40:38.422Z,73.89
2023-04-17T03:43:05.247Z,73.83
2023-04-17T03:45:32.266Z,73.87
2023-04-17T03:47:59.327Z,73.71
2023-04-17T03:50:26.224Z,73.32
2023-04-17T03:52:53.066Z,73.67
2023-04-17T03:55:20.011Z,73.49
2023-04-17T03:57:48.453Z,73.10
2023-04-17T04:00:16.305Z,73.05
2023-04-17T04:02:43.327Z,73.53
2023-04-17T04:05:10.559Z,73.09
2023-04-17T04:07:37.405Z,72.18
2023-04-17T04:10:04.557Z,71.27
2023-04-17T04:12:31.350Z,71.53
2023-04-17T04:14:58.184Z,72.69
2023-04-17T04:17:25.005Z,72.42
2023-04-17T04:19:51.928Z,72.48
2023-04-17T04:22:21.169Z,72.50
2023-04-17T04:24:48.340Z,72.21
2023-04-17T04:27:18.162Z,72.22
2023-04-17T04:29:48.797Z,72.26
2023-04-17T04:32:16.873Z,72.37
2023-04-17T04:34:44.593Z,72.53
2023-04-17T04:37:15.363Z,72.61
2023-04-17T04:39:43.063Z,73.07
2023-04-17T04:42:10.057Z,72.90
2023-04-17T04:44:37.592Z,73.65
2023-04-17T04:47:04.609Z,73.46
2023-04-17T04:49:31.506Z,73.33
2023-04-17T04:51:58.461Z,73.60
2023-04-17T04:54:25.431Z,73.67
2023-04-17T04:56:52.294Z,73.41
2023-04-17T04:59:19.184Z,73.49
2023-04-17T05:01:46.336Z,73.53
2023-04-17T05:04:13.286Z,73.15
2023-04-17T05:06:40.228Z,73.64
2023-04-17T05:09:07.075Z,73.96
2023-04-17T05:11:34.210Z,73.34
2023-04-17T05:14:01.166Z,73.50
2023-04-17T05:16:28.277Z,72.91
2023-04-17T05:18:55.547Z,73.06
2023-04-17T05:21:22.469Z,73.61
2023-04-17T05:23:49.397Z,73.84
2023-04-17T05:26:16.339Z,73.95
2023-04-17T05:28:45.027Z,73.99
2023-04-17T05:31:11.977Z,73.56
2023-04-17T05:33:38.867Z,73.04
2023-04-17T05:36:06.711Z,72.44
2023-04-17T05:38:33.579Z,72.91
2023-04-17T05:41:01.793Z,72.74
2023-04-17T05:43:28.657Z,73.42
2023-04-17T05:45:55.638Z,72.75
2023-04-17T05:48:22.598Z,73.61
2023-04-17T05:50:49.565Z,73.44
2023-04-17T05:53:16.626Z,72.54
2023-04-17T05:55:43.513Z,72.33
2023-04-17T05:58:22.973Z,72.60
2023-04-17T06:00:51.702Z,72.53
2023-04-17T06:03:19.331Z,72.20
2023-04-17T06:05:47.135Z,72.40
2023-04-17T06:08:14.191Z,72.17
2023-04-17T06:10:41.105Z,71.09
2023-04-17T06:13:07.957Z,71.13
2023-04-17T06:15:34.823Z,70.07
2023-04-17T06:18:01.647Z,69.96
2023-04-17T06:20:28.557Z,70.27
2023-04-17T06:22:56.910Z,69.91
2023-04-17T06:25:23.814Z,69.51
2023-04-17T06:27:50.662Z,70.03
2023-04-17T06:30:17.553Z,70.08
2023-04-17T06:32:44.440Z,69.89
2023-04-17T06:35:11.614Z,70.01
2023-04-17T06:37:38.455Z,69.65
2023-04-17T06:40:06.569Z,69.29
2023-04-17T06:42:35.192Z,69.74
2023-04-17T06:45:02.151Z,70.18
2023-04-17T06:47:29.207Z,70.35
2023-04-17T06:49:57.905Z,70.03
2023-04-17T06:52:24.855Z,70.02
2023-04-17T06:54:55.165Z,69.68
2023-04-17T06:57:22.418Z,69.27
2023-04-17T06:59:49.253Z,69.55
2023-04-17T07:02:16.461Z,70.00
2023-04-17T07:04:43.517Z,69.72
2023-04-17T07:07:11.132Z,70.12
2023-04-17T07:09:38.145Z,70.39
2023-04-17T07:12:05.486Z,69.64
2023-04-17T07:14:33.436Z,68.98
2023-04-17T07:17:00.605Z,68.69
2023-04-17T07:19:27.446Z,68.92
2023-04-17T07:21:54.292Z,67.75
2023-04-17T07:24:21.094Z,68.27
2023-04-17T07:26:49.527Z,67.86
2023-04-17T07:29:16.344Z,66.93
2023-04-17T07:31:43.686Z,67.61
2023-04-17T07:34:10.538Z,67.77
2023-04-17T07:36:37.453Z,66.54
2023-04-17T07:39:06.223Z,66.31
2023-04-17T07:41:33.095Z,65.77
2023-04-17T07:44:03.153Z,65.24
2023-04-17T07:46:30.156Z,64.91
2023-04-17T07:48:57.031Z,64.61
2023-04-17T07:51:23.865Z,64.66
2023-04-17T07:53:50.666Z,64.55
2023-04-17T07:56:17.616Z,64.28
2023-04-17T07:58:45.133Z,64.80
2023-04-17T08:01:13.647Z,64.29
2023-04-17T08:03:41.728Z,65.13
2023-04-17T08:06:08.830Z,64.71
2023-04-17T08:08:36.250Z,63.34
2023-04-17T08:11:03.689Z,63.03
2023-04-17T08:13:32.083Z,63.67
2023-04-17T08:15:59.597Z,62.85
2023-04-17T08:18:26.506Z,61.46
2023-04-17T08:20:53.732Z,61.53
2023-04-17T08:23:20.696Z,60.02
2023-04-17T08:25:47.643Z,60.17
2023-04-17T08:28:14.455Z,60.29
2023-04-17T08:30:41.301Z,59.63
2023-04-17T08:33:08.131Z,60.18
2023-04-17T08:35:34.979Z,60.37
2023-04-17T08:38:01.970Z,59.54
2023-04-17T08:40:28.964Z,59.93
2023-04-17T08:42:55.758Z,58.52
2023-04-17T08:45:24.622Z,56.51
2023-04-17T08:47:51.594Z,55.63
2023-04-17T08:50:21.750Z,53.96
2023-04-17T08:52:51.194Z,53.75
2023-04-17T08:55:20.941Z,53.94
2023-04-17T08:58:04.384Z,53.55
2023-04-17T09:00:34.560Z,53.42
2023-04-17T09:03:04.595Z,53.78
2023-04-17T09:05:36.937Z,54.19
2023-04-17T09:08:26.070Z,54.04
2023-04-17T09:10:54.961Z,54.44
2023-04-17T09:13:26.271Z,54.57
2023-04-17T09:16:08.642Z,54.02
2023-04-17T09:18:37.741Z,51.69
2023-04-17T09:21:06.507Z,51.73
2023-04-17T09:23:55.232Z,53.86
2023-04-17T09:26:33.149Z,53.46
2023-04-17T09:29:07.657Z,53.24
2023-04-17T09:31:36.203Z,52.70
2023-04-17T09:34:22.678Z,50.13
2023-04-17T09:36:54.818Z,50.80
2023-04-17T09:39:24.464Z,52.07
2023-04-17T09:42:05.573Z,50.24
2023-04-17T09:44:32.451Z,48.99
2023-04-17T09:47:01.418Z,47.70
2023-04-17T09:49:42.706Z,47.98
2023-04-17T09:52:09.779Z,47.27
2023-04-17T09:54:38.018Z,47.50
2023-04-17T09:57:10.397Z,46.13
2023-04-17T09:59:45.632Z,44.53
2023-04-17T10:02:18.779Z,45.96
2023-04-17T10:04:46.924Z,45.22
2023-04-17T10:07:14.415Z,46.66
2023-04-17T10:09:42.818Z,45.49
2023-04-17T10:12:18.353Z,46.56
2023-04-17T10:14:48.382Z,48.79
2023-04-17T10:17:31.646Z,48.67
2023-04-17T10:20:23.128Z,48.44
2023-04-17T10:22:56.318Z,49.63
2023-04-17T10:25:29.603Z,49.13
2023-04-17T10:28:03.027Z,48.57
2023-04-17T10:30:56.858Z,49.20
2023-04-17T10:33:25.669Z,48.17
2023-04-17T10:35:53.651Z,47.11
2023-04-17T10:38:36.630Z,46.59
2023-04-17T10:41:08.938Z,46.76
2023-04-17T10:43:40.535Z,46.89
2023-04-17T10:46:12.876Z,46.69
2023-04-17T10:48:52.267Z,46.86
2023-04-17T10:51:24.945Z,45.71
2023-04-17T10:53:56.266Z,45.67
2023-04-17T10:56:47.363Z,46.36
2023-04-17T10:59:17.033Z,47.79
2023-04-17T11:01:49.995Z,44.95
2023-04-17T11:04:33.832Z,46.14
2023-04-17T11:07:01.281Z,46.13
2023-04-17T11:09:29.588Z,46.72
2023-04-17T11:12:01.814Z,45.65
2023-04-17T11:14:30.265Z,44.49
2023-04-17T11:16:57.443Z,43.71
2023-04-17T11:19:26.211Z,44.14
2023-04-17T11:21:58.429Z,45.43
2023-04-17T11:24:30.489Z,44.57
2023-04-17T11:27:03.636Z,43.85
2023-04-17T11:29:30.854Z,44.98
2023-04-17T11:32:00.210Z,46.06
2023-04-17T11:34:27.386Z,44.70
2023-04-17T11:36:58.554Z,44.09
2023-04-17T11:39:29.514Z,44.00
2023-04-17T11:41:57.124Z,43.88
2023-04-17T11:44:24.830Z,44.13
2023-04-17T11:46:53.733Z,44.77
2023-04-17T11:49:29.308Z,43.07
2023-04-17T11:51:59.801Z,42.23
2023-04-17T11:54:27.828Z,44.32
2023-04-17T11:57:03.016Z,43.13
2023-04-17T11:59:37.990Z,42.24
2023-04-17T12:02:09.442Z,41.88
2023-04-17T12:04:38.234Z,42.24
2023-04-17T12:07:08.025Z,41.57
2023-04-17T12:09:35.874Z,42.68
2023-04-17T12:12:08.041Z,41.44
2023-04-17T12:14:35.439Z,42.29
2023-04-17T12:17:02.270Z,43.13
2023-04-17T12:19:29.562Z,43.03
2023-04-17T12:21:57.199Z,44.64
2023-04-17T12:24:25.065Z,43.37
2023-04-17T12:26:52.890Z,42.62
2023-04-17T12:29:26.481Z,41.80
2023-04-17T12:32:03.914Z,43.30
2023-04-17T12:34:30.917Z,42.42
2023-04-17T12:36:57.763Z,40.79
2023-04-17T12:39:24.596Z,40.27
2023-04-17T12:41:51.450Z,40.51
2023-04-17T12:44:18.260Z,37.71
2023-04-17T12:46:45.073Z,37.67
2023-04-17T12:49:12.154Z,38.69
2023-04-17T12:51:39.129Z,38.50
2023-04-17T12:54:05.944Z,39.34
2023-04-17T12:56:32.984Z,37.76
2023-04-17T12:59:02.230Z,36.70
2023-04-17T13:01:30.098Z,36.28
2023-04-17T13:03:57.298Z,36.91
2023-04-17T13:06:24.431Z,35.77
2023-04-17T13:08:51.244Z,34.29
2023-04-17T13:11:18.084Z,34.84
2023-04-17T13:13:45.100Z,36.92
2023-04-17T13:16:12.096Z,36.41
2023-04-17T13:18:39.025Z,34.18
2023-04-17T13:21:06.483Z,35.46
2023-04-17T13:23:33.314Z,36.32
2023-04-17T13:26:00.360Z,33.58
2023-04-17T13:28:27.272Z,35.40
2023-04-17T13:30:54.097Z,36.60
2023-04-17T13:33:20.944Z,37.46
2023-04-17T13:35:47.866Z,35.05
2023-04-17T13:38:14.739Z,32.14
2023-04-17T13:40:41.562Z,30.92
2023-04-17T13:43:09.103Z,29.80
2023-04-17T13:45:36.181Z,30.22
2023-04-17T13:48:03.143Z,30.45
2023-04-17T13:50:30.230Z,31.78
2023-04-17T13:52:57.129Z,34.08
2023-04-17T13:55:24.243Z,35.11
2023-04-17T13:57:51.673Z,35.54
2023-04-17T14:00:18.789Z,36.46
2023-04-17T14:02:45.901Z,37.27
2023-04-17T14:05:12.930Z,39.19
2023-04-17T14:07:39.872Z,41.20
2023-04-17T14:10:08.128Z,41.75
2023-04-17T14:12:35.051Z,42.33
2023-04-17T14:15:02.056Z,43.19
2023-04-17T14:17:29.057Z,43.57
2023-04-17T14:19:55.973Z,42.29
2023-04-17T14:22:22.798Z,42.85
2023-04-17T14:24:49.601Z,44.76
2023-04-17T14:27:16.567Z,47.68
2023-04-17T14:29:43.425Z,48.65
2023-04-17T14:32:10.297Z,48.91
2023-04-17T14:34:37.122Z,49.72
2023-04-17T14:37:03.963Z,50.92
2023-04-17T14:39:32.293Z,51.04
2023-04-17T14:42:01.344Z,51.28
2023-04-17T14:44:28.829Z,53.21
2023-04-17T14:46:56.940Z,54.86
2023-04-17T14:49:24.005Z,54.93
2023-04-17T14:51:50.793Z,57.11
2023-04-17T14:54:17.638Z,57.44
2023-04-17T14:56:44.475Z,59.08
2023-04-17T14:59:12.342Z,60.33
2023-04-17T15:01:39.391Z,60.31
2023-04-17T15:04:06.733Z,60.96
2023-04-17T15:06:33.713Z,60.10
2023-04-17T15:09:00.516Z,59.87
2023-04-17T15:11:27.320Z,60.34
2023-04-17T15:13:54.133Z,61.02
2023-04-17T15:16:20.962Z,59.80
2023-04-17T15:18:48.088Z,60.97
2023-04-17T15:21:16.466Z,60.87
2023-04-17T15:23:43.346Z,61.62
2023-04-17T15:26:10.424Z,61.78
2023-04-17T15:28:37.317Z,63.09
2023-04-17T15:31:04.128Z,64.48
2023-04-17T15:33:31.089Z,64.85
2023-04-17T15:36:00.162Z,65.14
2023-04-17T15:38:27.821Z,64.31
2023-04-17T15:40:55.730Z,65.27
2023-04-17T15:43:22.703Z,64.87
2023-04-17T15:45:49.660Z,65.54
2023-04-17T15:48:16.605Z,64.98
2023-04-17T15:50:43.972Z,64.91
2023-04-17T15:53:10.819Z,64.68
2023-04-17T15:55:38.520Z,65.06
2023-04-17T15:58:05.825Z,65.43
2023-04-17T16:00:34.028Z,65.65
2023-04-17T16:03:01.065Z,66.06
2023-04-17T16:05:29.666Z,65.32
2023-04-17T16:07:56.480Z,65.54
2023-04-17T16:10:23.375Z,65.19
2023-04-17T16:12:50.282Z,65.05
2023-04-17T16:15:18.156Z,64.31
2023-04-17T16:17:45.900Z,64.48
2023-04-17T16:20:13.158Z,64.55
2023-04-17T16:22:40.584Z,65.30
2023-04-17T16:25:08.018Z,65.44
2023-04-17T16:27:37.031Z,66.13
2023-04-17T16:30:05.149Z,66.93
2023-04-17T16:32:32.281Z,66.74
2023-04-17T16:34:59.472Z,66.72
2023-04-17T16:37:26.711Z,66.90
2023-04-17T16:39:53.511Z,67.12
2023-04-17T16:42:20.346Z,66.72
2023-04-17T16:44:47.899Z,67.42
2023-04-17T16:47:15.144Z,67.65
2023-04-17T16:49:42.710Z,67.14
2023-04-17T16:52:09.684Z,67.03
2023-04-17T16:54:36.479Z,67.17
2023-04-17T16:57:03.476Z,66.51
2023-04-17T16:59:30.263Z,65.91
2023-04-17T17:01:57.127Z,67.68
2023-04-17T17:04:23.988Z,67.86
2023-04-17T17:06:50.837Z,68.04
2023-04-17T17:09:17.747Z,67.30
2023-04-17T17:11:44.669Z,67.44
2023-04-17T17:14:11.518Z,67.66
2023-04-17T17:16:38.656Z,67.52
2023-04-17T17:19:05.860Z,67.27
2023-04-17T17:21:32.793Z,68.15
2023-04-17T17:24:00.529Z,68.03
2023-04-17T17:26:27.483Z,68.70
2023-04-17T17:28:55.329Z,69.32
2023-04-17T17:31:22.234Z,68.94
2023-04-17T17:33:50.274Z,69.20
2023-04-17T17:36:17.685Z,69.21
2023-04-17T17:38:44.783Z,69.43
2023-04-17T17:41:11.647Z,69.75
2023-04-17T17:43:38.544Z,69.35
2023-04-17T17:46:05.476Z,69.67
2023-04-17T17:48:34.206Z,71.68
2023-04-17T17:51:01.003Z,70.59
2023-04-17T17:53:27.795Z,70.57
2023-04-17T17:55:56.513Z,70.28
2023-04-17T17:58:23.944Z,69.25
2023-04-17T18:00:51.157Z,68.70
2023-04-17T18:03:19.116Z,68.26
2023-04-17T18:05:46.848Z,67.67
2023-04-17T18:08:14.480Z,66.39
2023-04-17T18:10:41.320Z,64.95
2023-04-17T18:13:08.255Z,63.96
2023-04-17T18:15:36.347Z,64.47
2023-04-17T18:18:03.472Z,64.99
2023-04-17T18:20:30.341Z,64.71
2023-04-17T18:22:57.697Z,64.53
2023-04-17T18:25:24.684Z,64.46
2023-04-17T18:27:51.502Z,64.68
2023-04-17T18:30:18.285Z,66.18
2023-04-17T18:32:45.157Z,66.79
2023-04-17T18:35:15.114Z,66.92
2023-04-17T18:37:44.859Z,66.54
2023-04-17T18:40:12.976Z,67.14
2023-04-17T18:42:40.319Z,67.97
2023-04-17T18:45:07.828Z,68.06
2023-04-17T18:47:34.712Z,68.13
2023-04-17T18:50:01.670Z,67.88
2023-04-17T18:52:28.491Z,68.92
2023-04-17T18:54:55.433Z,68.59
2023-04-17T18:57:22.308Z,69.08
2023-04-17T18:59:51.601Z,69.04
2023-04-17T19:02:21.155Z,69.40
2023-04-17T19:04:51.038Z,69.53
2023-04-17T19:07:21.025Z,69.19
2023-04-17T19:09:47.821Z,68.92
2023-04-17T19:12:14.669Z,68.51
2023-04-17T19:14:41.494Z,68.46
2023-04-17T19:17:08.387Z,69.56
2023-04-17T19:19:35.308Z,69.97
2023-04-17T19:22:02.106Z,70.40
2023-04-17T19:24:28.932Z,71.01
2023-04-17T19:26:55.812Z,70.96
2023-04-17T19:29:22.847Z,71.27
2023-04-17T19:31:49.688Z,71.38
2023-04-17T19:34:16.619Z,71.17
2023-04-17T19:36:44.192Z,71.21
2023-04-17T19:39:11.241Z,70.99
2023-04-17T19:41:38.304Z,71.42
2023-04-17T19:44:05.405Z,71.31
2023-04-17T19:46:32.962Z,71.48
2023-04-17T19:48:59.810Z,71.33
2023-04-17T19:51:26.662Z,71.76
2023-04-17T19:53:53.620Z,71.64
2023-04-17T19:56:20.468Z,71.50
2023-04-17T19:58:47.781Z,71.66
2023-04-17T20:01:15.579Z,71.59
2023-04-17T20:03:43.661Z,71.73
2023-04-17T20:06:10.945Z,72.03
2023-04-17T20:08:37.743Z,72.10
2023-04-17T20:11:06.215Z,72.29
2023-04-17T20:13:33.067Z,72.39
2023-04-17T20:15:59.874Z,72.23
2023-04-17T20:18:27.214Z,72.22
2023-04-17T20:20:54.072Z,72.02
2023-04-17T20:23:21.309Z,72.22
2023-04-17T20:25:48.161Z,71.68
2023-04-17T20:28:14.976Z,71.41
2023-04-17T20:30:41.798Z,71.53
2023-04-17T20:33:08.681Z,71.57
2023-04-17T20:35:35.840Z,71.61
2023-04-17T20:38:02.726Z,72.16
2023-04-17T20:40:29.654Z,71.90
2023-04-17T20:42:56.492Z,71.81
2023-04-17T20:45:24.367Z,71.78
2023-04-17T20:50:21.255Z,71.57
2023-04-17T20:52:48.217Z,71.76
2023-04-17T20:55:18.165Z,71.63
2023-04-17T20:57:45.229Z,71.12
2023-04-17T21:00:12.726Z,71.07
2023-04-17T21:02:39.608Z,71.62
2023-04-17T21:05:08.358Z,71.33
2023-04-17T21:07:36.097Z,71.07
2023-04-17T21:10:03.673Z,71.40
2023-04-17T21:12:32.730Z,71.42
2023-04-17T21:14:59.737Z,71.31
2023-04-17T21:17:26.674Z,71.62
2023-04-17T21:19:55.746Z,71.90
2023-04-17T21:22:22.630Z,71.80
2023-04-17T21:24:49.562Z,71.82
2023-04-17T21:27:16.461Z,71.80
2023-04-17T21:29:43.319Z,71.51
2023-04-17T21:32:10.227Z,71.54
2023-04-17T21:34:37.098Z,71.55
2023-04-17T21:37:04.861Z,71.61
2023-04-17T21:39:33.287Z,71.60
2023-04-17T21:42:00.769Z,71.51
2023-04-17T21:44:28.356Z,71.40
2023-04-17T21:46:55.249Z,71.41
2023-04-17T21:49:22.782Z,71.10
2023-04-17T21:51:49.664Z,71.36
2023-04-17T21:54:16.783Z,72.00
2023-04-17T21:56:43.680Z,72.09
2023-04-17T21:59:10.502Z,72.27
2023-04-17T22:01:37.434Z,72.07
2023-04-17T22:04:04.610Z,71.92
2023-04-17T22:06:36.793Z,71.25
2023-04-17T22:09:06.640Z,71.56
2023-04-17T22:11:33.616Z,71.16
2023-04-17T22:14:00.697Z,72.14
2023-04-17T22:16:27.592Z,72.18
2023-04-17T22:18:54.591Z,71.90
2023-04-17T22:21:21.396Z,71.58
2023-04-17T22:23:48.262Z,71.46
2023-04-17T22:26:15.175Z,72.01
2023-04-17T22:28:42.014Z,72.05
2023-04-17T22:31:10.361Z,71.76
2023-04-17T22:33:37.214Z,71.71
2023-04-17T22:36:04.161Z,71.50
2023-04-17T22:38:30.989Z,71.06
2023-04-17T22:40:57.848Z,71.03
2023-04-17T22:43:24.645Z,71.20
2023-04-17T22:45:51.633Z,71.86
2023-04-17T22:48:18.485Z,71.32
2023-04-17T22:50:45.691Z,72.00
2023-04-17T22:53:12.490Z,71.52
2023-04-17T22:55:39.384Z,72.20
2023-04-17T22:58:06.233Z,71.81
2023-04-17T23:00:33.186Z,71.94
2023-04-17T23:03:00.067Z,71.66
2023-04-17T23:05:27.086Z,72.28
2023-04-17T23:07:53.929Z,71.40
2023-04-17T23:10:20.841Z,71.25
2023-04-17T23:12:47.642Z,71.61
2023-04-17T23:15:14.618Z,71.49
2023-04-17T23:17:41.590Z,71.73
2023-04-17T23:20:08.858Z,71.51
2023-04-17T23:22:35.733Z,71.27
2023-04-17T23:25:03.072Z,71.24
2023-04-17T23:27:29.924Z,71.64
2023-04-17T23:29:58.979Z,71.05
2023-04-17T23:32:25.824Z,71.67
2023-04-17T23:34:52.750Z,71.73
2023-04-17T23:37:19.851Z,71.98
2023-04-17T23:39:47.405Z,71.86
2023-04-17T23:42:14.402Z,71.73
2023-04-17T23:44:41.569Z,72.04
2023-04-17T23:47:09.336Z,72.15
2023-04-17T23:49:36.308Z,72.31
2023-04-17T23:52:03.130Z,72.64
2023-04-17T23:54:30.211Z,72.67
2023-04-17T23:56:58.026Z,72.84
2023-04-17T23:59:24.817Z,73.03
